createdAt,value
2022-10-31T00:01:21.389Z,85.48
2022-10-31T00:03:48.801Z,85.17
2022-10-31T00:06:19.028Z,85.65
2022-10-31T00:08:53.983Z,87.94
2022-10-31T00:11:21.123Z,87.73
2022-10-31T00:13:48.273Z,87.37
2022-10-31T00:16:23.271Z,87.99
2022-10-31T00:18:55.194Z,87.15
2022-10-31T00:21:23.229Z,87.40
2022-10-31T00:23:50.588Z,86.37
2022-10-31T00:26:18.020Z,85.72
2022-10-31T00:28:45.188Z,85.83
2022-10-31T00:31:13.350Z,87.12
2022-10-31T00:33:41.504Z,87.56
2022-10-31T00:36:11.511Z,86.94
2022-10-31T00:38:38.634Z,86.36
2022-10-31T00:41:05.787Z,85.81
2022-10-31T00:43:32.940Z,85.49
2022-10-31T00:46:00.079Z,85.17
2022-10-31T00:48:27.232Z,85.82
2022-10-31T00:50:54.367Z,85.45
2022-10-31T00:53:21.626Z,86.33
2022-10-31T00:55:48.815Z,86.95
2022-10-31T00:58:15.946Z,86.94
2022-10-31T01:00:45.573Z,86.28
2022-10-31T01:03:15.216Z,87.42
2022-10-31T01:05:42.447Z,87.56
2022-10-31T01:08:09.610Z,87.86
2022-10-31T01:10:36.738Z,87.76
2022-10-31T01:13:03.907Z,87.73
2022-10-31T01:15:31.032Z,88.06
2022-10-31T01:17:58.462Z,88.90
2022-10-31T01:20:25.818Z,88.52
2022-10-31T01:22:52.968Z,87.85
2022-10-31T01:25:20.116Z,87.50
2022-10-31T01:27:47.256Z,87.92
2022-10-31T01:30:14.443Z,88.67
2022-10-31T01:32:41.612Z,88.56
2022-10-31T01:35:08.759Z,89.67
2022-10-31T01:37:35.858Z,89.23
2022-10-31T01:40:04.290Z,87.93
2022-10-31T01:42:31.436Z,87.80
2022-10-31T01:45:02.349Z,87.12
2022-10-31T01:47:38.131Z,87.25
2022-10-31T01:50:11.071Z,86.77
2022-10-31T01:52:42.341Z,86.50
2022-10-31T01:55:27.722Z,86.46
2022-10-31T01:58:00.950Z,86.01
2022-10-31T02:00:28.421Z,86.54
2022-10-31T02:02:57.117Z,88.73
2022-10-31T02:05:27.059Z,89.58
2022-10-31T02:08:16.267Z,88.96
2022-10-31T02:10:44.096Z,88.20
2022-10-31T02:13:13.105Z,88.05
2022-10-31T02:15:41.829Z,88.51
2022-10-31T02:18:09.501Z,88.19
2022-10-31T02:20:43.338Z,87.81
2022-10-31T02:23:45.191Z,87.72
2022-10-31T02:26:30.876Z,87.47
2022-10-31T02:29:00.868Z,87.61
2022-10-31T02:32:09.217Z,87.43
2022-10-31T02:34:49.978Z,87.24
2022-10-31T02:37:44.527Z,87.35
2022-10-31T02:40:28.114Z,87.24
2022-10-31T02:45:51.676Z,87.33
2022-10-31T02:48:32.494Z,87.70
2022-10-31T02:51:01.569Z,87.54
2022-10-31T02:53:35.657Z,87.98
2022-10-31T02:56:07.996Z,87.52
2022-10-31T02:58:38.502Z,88.00
2022-10-31T03:01:14.390Z,88.52
2022-10-31T03:03:59.645Z,88.79
2022-10-31T03:06:31.999Z,89.37
2022-10-31T03:09:02.154Z,90.78
2022-10-31T03:11:42.203Z,90.99
2022-10-31T03:14:20.542Z,92.48
2022-10-31T03:16:52.347Z,91.42
2022-10-31T03:19:20.805Z,91.45
2022-10-31T03:21:51.538Z,92.27
2022-10-31T03:24:20.268Z,92.77
2022-10-31T03:26:53.719Z,92.67
2022-10-31T03:29:23.598Z,92.01
2022-10-31T03:31:58.619Z,93.21
2022-10-31T03:34:26.394Z,92.24
2022-10-31T03:36:56.255Z,94.17
2022-10-31T03:39:24.056Z,93.94
2022-10-31T03:41:56.150Z,95.42
2022-10-31T03:44:24.279Z,94.33
2022-10-31T03:46:51.656Z,96.29
2022-10-31T03:49:18.771Z,95.99
2022-10-31T03:51:56.264Z,96.03
2022-10-31T03:54:43.335Z,96.19
2022-10-31T03:57:23.795Z,96.02
2022-10-31T04:00:07.574Z,96.78
2022-10-31T04:02:36.453Z,95.60
2022-10-31T04:05:03.984Z,95.42
2022-10-31T04:07:34.604Z,95.55
2022-10-31T04:10:03.762Z,95.75
2022-10-31T04:12:32.017Z,97.19
2022-10-31T04:14:59.972Z,96.94
2022-10-31T04:17:31.330Z,95.81
2022-10-31T04:20:01.364Z,97.50
2022-10-31T04:22:28.475Z,98.35
2022-10-31T04:24:55.857Z,99.46
2022-10-31T04:27:40.291Z,98.24
2022-10-31T04:30:07.898Z,99.12
2022-10-31T04:32:34.991Z,99.64
2022-10-31T04:35:02.107Z,99.19
2022-10-31T04:37:29.371Z,98.98
2022-10-31T04:39:56.506Z,99.61
2022-10-31T04:42:23.631Z,98.88
2022-10-31T04:44:50.730Z,98.83
2022-10-31T04:47:17.883Z,98.60
2022-10-31T04:49:45.141Z,98.18
2022-10-31T04:52:12.443Z,98.88
2022-10-31T04:54:39.518Z,98.41
2022-10-31T04:57:06.642Z,100.00
2022-10-31T04:59:33.737Z,100.00
2022-10-31T05:02:01.161Z,100.00
2022-10-31T05:04:28.384Z,100.00
2022-10-31T05:06:55.487Z,100.00
2022-10-31T05:09:22.647Z,100.00
2022-10-31T05:11:49.783Z,100.00
2022-10-31T05:14:16.902Z,100.00
2022-10-31T05:16:43.993Z,100.00
2022-10-31T05:19:11.160Z,100.00
2022-10-31T05:21:38.260Z,100.00
2022-10-31T05:24:05.608Z,100.00
2022-10-31T05:26:32.729Z,100.00
2022-10-31T05:28:59.827Z,100.00
2022-10-31T05:31:26.979Z,100.00
2022-10-31T05:33:54.086Z,100.00
2022-10-31T05:36:21.186Z,100.00
2022-10-31T05:38:48.257Z,100.00
2022-10-31T05:41:15.425Z,100.00
2022-10-31T05:43:42.532Z,100.00
2022-10-31T05:46:09.670Z,100.00
2022-10-31T05:48:36.829Z,100.00
2022-10-31T05:51:04.013Z,100.00
2022-10-31T05:53:31.193Z,100.00
2022-10-31T05:55:58.314Z,100.00
2022-10-31T05:58:25.424Z,100.00
2022-10-31T06:00:52.521Z,100.00
2022-10-31T06:03:19.717Z,100.00
2022-10-31T06:05:50.707Z,100.00
2022-10-31T06:08:21.287Z,100.00
2022-10-31T06:10:48.474Z,100.00
2022-10-31T06:13:15.575Z,100.00
2022-10-31T06:15:42.979Z,100.00
2022-10-31T06:18:10.080Z,100.00
2022-10-31T06:20:37.588Z,100.00
2022-10-31T06:23:05.637Z,100.00
2022-10-31T06:25:33.966Z,100.00
2022-10-31T06:28:01.103Z,100.00
2022-10-31T06:30:28.230Z,100.00
2022-10-31T06:32:55.387Z,100.00
2022-10-31T06:35:22.607Z,100.00
2022-10-31T06:37:54.436Z,100.00
2022-10-31T06:40:21.619Z,100.00
2022-10-31T06:42:48.849Z,100.00
2022-10-31T06:45:15.933Z,100.00
2022-10-31T06:48:10.910Z,100.00
2022-10-31T06:50:30.656Z,100.00
2022-10-31T06:52:59.102Z,100.00
2022-10-31T06:55:27.424Z,100.00
2022-10-31T06:58:02.022Z,100.00
2022-10-31T07:00:31.219Z,100.00
2022-10-31T07:03:06.763Z,100.00
2022-10-31T07:05:34.275Z,100.00
2022-10-31T07:08:04.210Z,100.00
2022-10-31T07:10:35.702Z,100.00
2022-10-31T07:13:08.137Z,100.00
2022-10-31T07:15:37.452Z,100.00
2022-10-31T07:18:05.998Z,100.00
2022-10-31T07:20:33.506Z,100.00
2022-10-31T07:23:01.920Z,100.00
2022-10-31T07:25:29.750Z,100.00
2022-10-31T07:27:56.999Z,100.00
2022-10-31T07:30:24.437Z,100.00
2022-10-31T07:32:51.853Z,100.00
2022-10-31T07:35:21.398Z,100.00
2022-10-31T07:37:49.325Z,100.00
2022-10-31T07:40:16.737Z,100.00
2022-10-31T07:42:48.303Z,100.00
2022-10-31T07:45:18.654Z,100.00
2022-10-31T07:47:47.510Z,100.00
2022-10-31T07:50:16.937Z,100.00
2022-10-31T07:52:44.088Z,100.00
2022-10-31T07:55:12.006Z,100.00
2022-10-31T07:57:39.491Z,100.00
2022-10-31T08:00:08.041Z,100.00
2022-10-31T08:02:35.235Z,100.00
2022-10-31T08:05:05.172Z,100.00
2022-10-31T08:10:09.295Z,100.00
2022-10-31T08:12:36.398Z,100.00
2022-10-31T08:15:03.552Z,100.00
2022-10-31T08:17:30.632Z,100.00
2022-10-31T08:19:57.732Z,100.00
2022-10-31T08:22:24.822Z,100.00
2022-10-31T08:24:52.053Z,100.00
2022-10-31T08:27:19.157Z,100.00
2022-10-31T08:29:46.264Z,100.00
2022-10-31T08:32:13.540Z,100.00
2022-10-31T08:34:40.833Z,100.00
2022-10-31T08:37:07.926Z,100.00
2022-10-31T08:39:35.054Z,100.00
2022-10-31T08:42:02.181Z,100.00
2022-10-31T08:44:29.263Z,100.00
2022-10-31T08:46:59.716Z,100.00
2022-10-31T08:49:30.554Z,100.00
2022-10-31T08:51:57.732Z,100.00
2022-10-31T08:54:24.857Z,100.00
2022-10-31T08:56:56.471Z,100.00
2022-10-31T08:59:23.598Z,100.00
2022-10-31T09:01:50.785Z,100.00
2022-10-31T09:04:18.001Z,100.00
2022-10-31T09:07:07.913Z,100.00
2022-10-31T09:09:32.199Z,100.00
2022-10-31T09:11:59.890Z,100.00
2022-10-31T09:14:27.617Z,100.00
2022-10-31T09:16:54.725Z,100.00
2022-10-31T09:19:21.815Z,100.00
2022-10-31T09:21:48.890Z,100.00
2022-10-31T09:24:16.033Z,100.00
2022-10-31T09:26:43.149Z,100.00
2022-10-31T09:29:10.457Z,100.00
2022-10-31T09:31:40.931Z,100.00
2022-10-31T09:34:11.727Z,100.00
2022-10-31T09:36:39.726Z,100.00
2022-10-31T09:39:08.254Z,100.00
2022-10-31T09:42:14.037Z,100.00
2022-10-31T09:44:56.982Z,100.00
2022-10-31T09:47:28.439Z,100.00
2022-10-31T09:50:13.238Z,100.00
2022-10-31T09:52:43.835Z,100.00
2022-10-31T09:55:18.126Z,100.00
2022-10-31T09:57:45.811Z,100.00
2022-10-31T10:00:19.068Z,100.00
2022-10-31T10:03:01.034Z,100.00
2022-10-31T10:05:40.036Z,100.00
2022-10-31T10:08:33.678Z,100.00
2022-10-31T10:11:27.051Z,100.00
2022-10-31T10:14:09.746Z,100.00
2022-10-31T10:16:44.410Z,100.00
2022-10-31T10:19:27.279Z,100.00
2022-10-31T10:22:03.052Z,100.00
2022-10-31T10:24:56.345Z,100.00
2022-10-31T10:27:40.708Z,99.94
2022-10-31T10:30:21.430Z,99.96
2022-10-31T10:32:54.151Z,99.32
2022-10-31T10:35:48.147Z,98.70
2022-10-31T10:38:44.181Z,98.90
2022-10-31T10:41:15.472Z,98.16
2022-10-31T10:43:42.626Z,97.39
2022-10-31T10:46:28.015Z,95.87
2022-10-31T10:49:19.086Z,94.94
2022-10-31T10:52:27.437Z,92.94
2022-10-31T10:55:02.944Z,90.64
2022-10-31T10:57:39.099Z,88.09
2022-10-31T11:00:19.704Z,87.49
2022-10-31T11:02:48.947Z,87.53
2022-10-31T11:05:35.451Z,86.70
2022-10-31T11:08:03.698Z,84.72
2022-10-31T11:10:30.993Z,84.33
2022-10-31T11:13:16.865Z,84.50
2022-10-31T11:15:55.677Z,83.16
2022-10-31T11:20:59.966Z,82.60
2022-10-31T11:23:28.745Z,81.13
2022-10-31T11:25:58.178Z,80.17
2022-10-31T11:28:26.743Z,79.77
2022-10-31T11:30:58.920Z,77.80
2022-10-31T11:33:30.475Z,75.58
2022-10-31T11:35:58.871Z,75.74
2022-10-31T11:38:35.372Z,74.95
2022-10-31T11:41:19.978Z,72.55
2022-10-31T11:44:17.781Z,69.67
2022-10-31T11:46:51.246Z,66.55
2022-10-31T11:49:23.897Z,67.22
2022-10-31T11:51:54.207Z,65.56
2022-10-31T11:56:50.278Z,61.96
2022-10-31T11:59:30.892Z,64.63
2022-10-31T12:02:02.572Z,65.07
2022-10-31T12:04:41.490Z,63.91
2022-10-31T12:07:08.792Z,65.97
2022-10-31T12:09:37.730Z,65.99
2022-10-31T12:12:13.803Z,63.07
2022-10-31T12:15:09.268Z,63.64
2022-10-31T12:17:54.225Z,63.93
2022-10-31T12:20:27.143Z,64.59
2022-10-31T12:23:29.889Z,60.56
2022-10-31T12:26:13.127Z,61.10
2022-10-31T12:28:55.493Z,59.22
2022-10-31T12:31:40.423Z,58.45
2022-10-31T12:34:29.020Z,60.18
2022-10-31T12:37:12.905Z,59.32
2022-10-31T12:39:42.595Z,57.82
2022-10-31T12:42:25.107Z,59.02
2022-10-31T12:44:57.776Z,57.06
2022-10-31T12:47:42.910Z,56.59
2022-10-31T12:50:20.252Z,57.84
2022-10-31T12:52:51.351Z,59.63
2022-10-31T12:55:46.790Z,59.65
2022-10-31T12:58:25.547Z,56.76
2022-10-31T13:01:29.076Z,56.31
2022-10-31T13:04:23.501Z,56.11
2022-10-31T13:06:54.118Z,55.20
2022-10-31T13:09:26.702Z,55.67
2022-10-31T13:12:00.338Z,54.93
2022-10-31T13:14:50.428Z,51.58
2022-10-31T13:17:29.118Z,52.70
2022-10-31T13:20:13.385Z,52.26
2022-10-31T13:22:43.440Z,53.88
2022-10-31T13:25:10.519Z,54.09
2022-10-31T13:28:00.122Z,53.75
2022-10-31T13:30:31.110Z,55.36
2022-10-31T13:33:10.270Z,55.84
2022-10-31T13:36:00.823Z,57.22
2022-10-31T13:38:39.650Z,53.60
2022-10-31T13:41:35.945Z,56.90
2022-10-31T13:44:10.481Z,59.29
2022-10-31T13:46:39.852Z,58.42
2022-10-31T13:49:25.074Z,58.38
2022-10-31T13:51:55.258Z,60.38
2022-10-31T13:54:33.876Z,61.87
2022-10-31T13:57:01.137Z,62.04
2022-10-31T13:59:29.932Z,63.99
2022-10-31T14:02:00.697Z,64.51
2022-10-31T14:04:33.497Z,64.81
2022-10-31T14:07:15.507Z,64.02
2022-10-31T14:09:48.260Z,63.43
2022-10-31T14:12:26.457Z,63.74
2022-10-31T14:15:01.623Z,65.74
2022-10-31T14:17:30.750Z,67.80
2022-10-31T14:20:00.902Z,67.42
2022-10-31T14:22:32.261Z,67.58
2022-10-31T14:24:59.466Z,67.96
2022-10-31T14:27:29.184Z,66.19
2022-10-31T14:29:56.250Z,67.37
2022-10-31T14:32:24.533Z,68.46
2022-10-31T14:34:51.645Z,69.20
2022-10-31T14:37:33.524Z,69.67
2022-10-31T14:43:40.882Z,71.43
2022-10-31T14:46:31.697Z,69.96
2022-10-31T14:49:23.698Z,72.22
2022-10-31T14:51:52.319Z,73.26
2022-10-31T14:54:26.659Z,73.94
2022-10-31T14:56:56.597Z,74.01
2022-10-31T14:59:32.170Z,74.84
2022-10-31T15:02:16.138Z,75.89
2022-10-31T15:04:45.559Z,77.41
2022-10-31T15:07:24.931Z,78.22
2022-10-31T15:10:07.251Z,77.46
2022-10-31T15:12:39.009Z,76.68
2022-10-31T15:15:18.803Z,77.83
2022-10-31T15:17:51.261Z,77.79
2022-10-31T15:20:21.258Z,77.84
2022-10-31T15:22:48.949Z,78.35
2022-10-31T15:25:22.209Z,78.53
2022-10-31T15:27:50.590Z,78.97
2022-10-31T15:30:29.073Z,79.88
2022-10-31T15:32:58.780Z,80.36
2022-10-31T15:35:30.633Z,80.65
2022-10-31T15:37:59.372Z,80.90
2022-10-31T15:40:27.662Z,80.99
2022-10-31T15:42:59.671Z,80.72
2022-10-31T15:45:28.877Z,81.08
2022-10-31T15:48:05.043Z,81.20
2022-10-31T15:50:41.516Z,80.72
2022-10-31T15:53:25.437Z,80.68
2022-10-31T15:55:55.922Z,80.48
2022-10-31T15:58:23.509Z,80.54
2022-10-31T16:01:21.017Z,80.45
2022-10-31T16:04:00.319Z,80.81
2022-10-31T16:06:27.622Z,81.21
2022-10-31T16:08:55.338Z,81.86
2022-10-31T16:11:26.130Z,82.00
2022-10-31T16:13:56.023Z,82.03
2022-10-31T16:16:38.665Z,82.08
2022-10-31T16:19:06.742Z,81.68
2022-10-31T16:21:38.428Z,81.63
2022-10-31T16:24:15.962Z,81.40
2022-10-31T16:26:43.257Z,81.92
2022-10-31T16:29:28.528Z,83.11
2022-10-31T16:31:55.791Z,83.40
2022-10-31T16:34:26.611Z,83.82
2022-10-31T16:36:54.080Z,84.05
2022-10-31T16:39:21.547Z,83.45
2022-10-31T16:41:52.039Z,83.46
2022-10-31T16:44:26.730Z,84.79
2022-10-31T16:47:16.562Z,84.54
2022-10-31T16:49:45.160Z,84.58
2022-10-31T16:52:12.313Z,84.98
2022-10-31T16:54:40.080Z,85.28
2022-10-31T16:57:07.731Z,87.54
2022-10-31T16:59:35.362Z,87.79
2022-10-31T17:02:03.391Z,88.68
2022-10-31T17:04:30.659Z,89.43
2022-10-31T17:06:57.815Z,88.92
2022-10-31T17:09:24.963Z,88.36
2022-10-31T17:11:53.161Z,89.64
2022-10-31T17:14:20.291Z,90.48
2022-10-31T17:16:47.494Z,90.22
2022-10-31T17:19:14.630Z,91.47
2022-10-31T17:21:41.862Z,90.95
2022-10-31T17:24:13.275Z,90.51
2022-10-31T17:26:40.544Z,89.71
2022-10-31T17:29:07.790Z,89.59
2022-10-31T17:31:39.433Z,89.61
2022-10-31T17:34:06.985Z,89.50
2022-10-31T17:36:34.755Z,90.11
2022-10-31T17:39:03.260Z,92.21
2022-10-31T17:41:30.485Z,92.15
2022-10-31T17:43:58.635Z,91.56
2022-10-31T17:46:25.946Z,91.31
2022-10-31T17:48:56.372Z,90.89
2022-10-31T17:51:26.917Z,91.52
2022-10-31T17:53:57.441Z,91.07
2022-10-31T17:56:24.897Z,92.46
2022-10-31T17:58:52.219Z,92.98
2022-10-31T18:01:21.667Z,93.65
2022-10-31T18:03:50.035Z,93.54
2022-10-31T18:06:17.176Z,93.15
2022-10-31T18:08:44.634Z,92.72
2022-10-31T18:11:17.785Z,91.98
2022-10-31T18:13:45.066Z,91.63
2022-10-31T18:16:14.835Z,91.17
2022-10-31T18:18:42.354Z,91.44
2022-10-31T18:21:09.460Z,91.09
2022-10-31T18:23:36.636Z,91.86
2022-10-31T18:26:03.853Z,91.51
2022-10-31T18:28:30.938Z,91.86
2022-10-31T18:31:00.860Z,91.54
2022-10-31T18:33:28.278Z,91.87
2022-10-31T18:35:55.760Z,92.01
2022-10-31T18:38:23.154Z,92.69
2022-10-31T18:40:53.125Z,93.75
2022-10-31T18:43:20.226Z,92.99
2022-10-31T18:45:48.785Z,92.59
2022-10-31T18:48:18.429Z,92.33
2022-10-31T18:50:45.899Z,92.89
2022-10-31T18:53:13.044Z,93.12
2022-10-31T18:55:44.097Z,93.48
2022-10-31T18:58:14.714Z,93.48
2022-10-31T19:00:41.959Z,93.20
2022-10-31T19:03:09.083Z,94.06
2022-10-31T19:05:36.187Z,94.84
2022-10-31T19:08:03.633Z,96.11
2022-10-31T19:10:30.713Z,95.56
2022-10-31T19:12:58.002Z,95.54
2022-10-31T19:15:26.106Z,94.33
2022-10-31T19:17:53.374Z,93.75
2022-10-31T19:20:20.941Z,93.61
2022-10-31T19:22:48.126Z,94.03
2022-10-31T19:25:15.260Z,93.56
2022-10-31T19:27:42.346Z,95.07
2022-10-31T19:30:10.254Z,94.93
2022-10-31T19:32:37.748Z,94.50
2022-10-31T19:35:09.033Z,94.42
2022-10-31T19:37:36.733Z,93.79
2022-10-31T19:40:05.275Z,93.28
2022-10-31T19:42:33.185Z,92.69
2022-10-31T19:45:00.689Z,92.10
2022-10-31T19:47:27.798Z,91.83
2022-10-31T19:49:54.888Z,91.69
2022-10-31T19:52:22.000Z,91.53
2022-10-31T19:54:49.097Z,91.94
2022-10-31T19:57:16.197Z,93.14
2022-10-31T19:59:43.288Z,93.49
2022-10-31T20:02:19.592Z,93.68
2022-10-31T20:04:46.878Z,93.21
2022-10-31T20:07:14.012Z,94.49
2022-10-31T20:09:41.189Z,95.99
2022-10-31T20:12:08.285Z,95.82
2022-10-31T20:14:35.537Z,96.38
2022-10-31T20:17:02.761Z,95.58
2022-10-31T20:19:29.929Z,96.39
2022-10-31T20:21:57.215Z,96.03
2022-10-31T20:24:24.346Z,96.00
2022-10-31T20:26:51.551Z,96.04
2022-10-31T20:29:19.499Z,96.38
2022-10-31T20:31:47.328Z,96.70
2022-10-31T20:34:15.170Z,96.76
2022-10-31T20:36:42.471Z,97.07
2022-10-31T20:39:09.760Z,98.47
2022-10-31T20:41:38.426Z,98.47
2022-10-31T20:44:06.349Z,98.17
2022-10-31T20:46:33.534Z,97.44
2022-10-31T20:49:00.673Z,97.91
2022-10-31T20:51:28.933Z,98.34
2022-10-31T20:53:57.062Z,98.07
2022-10-31T20:56:25.913Z,98.53
2022-10-31T20:58:55.210Z,98.50
2022-10-31T21:01:26.218Z,98.99
2022-10-31T21:03:53.572Z,100.00
2022-10-31T21:06:23.015Z,100.00
2022-10-31T21:08:50.877Z,100.00
2022-10-31T21:11:20.151Z,100.00
2022-10-31T21:13:48.321Z,99.92
2022-10-31T21:16:21.308Z,98.64
2022-10-31T21:18:49.533Z,98.89
2022-10-31T21:21:32.758Z,98.55
2022-10-31T21:24:13.118Z,99.56
2022-10-31T21:26:43.137Z,99.20
2022-10-31T21:29:11.647Z,98.79
2022-10-31T21:31:39.499Z,98.30
2022-10-31T21:34:07.102Z,98.08
2022-10-31T21:36:34.676Z,98.75
2022-10-31T21:39:02.164Z,98.96
2022-10-31T21:41:29.318Z,98.82
2022-10-31T21:43:57.101Z,97.93
2022-10-31T21:46:29.502Z,96.78
2022-10-31T21:48:56.814Z,96.77
2022-10-31T21:51:29.328Z,96.81
2022-10-31T21:54:15.538Z,96.64
2022-10-31T21:56:43.065Z,96.19
2022-10-31T21:59:10.372Z,95.96
2022-10-31T22:01:37.715Z,95.96
2022-10-31T22:04:05.282Z,95.90
2022-10-31T22:06:32.579Z,96.47
2022-10-31T22:09:01.289Z,97.26
2022-10-31T22:11:29.051Z,97.40
2022-10-31T22:13:58.465Z,97.07
2022-10-31T22:16:26.955Z,96.29
2022-10-31T22:18:55.892Z,96.12
2022-10-31T22:21:25.845Z,95.63
2022-10-31T22:23:58.511Z,96.05
2022-10-31T22:26:27.615Z,96.66
2022-10-31T22:28:57.888Z,97.42
2022-10-31T22:31:26.549Z,97.69
2022-10-31T22:33:54.035Z,97.59
2022-10-31T22:36:23.581Z,96.86
2022-10-31T22:38:50.764Z,96.20
2022-10-31T22:41:22.987Z,95.70
2022-10-31T22:43:50.383Z,97.31
2022-10-31T22:46:23.074Z,97.24
2022-10-31T22:48:52.874Z,98.45
2022-10-31T22:51:27.783Z,100.00
2022-10-31T22:53:56.644Z,99.43
2022-10-31T22:56:26.047Z,99.07
2022-10-31T22:58:53.622Z,100.00
2022-10-31T23:01:23.160Z,99.24
2022-10-31T23:03:50.949Z,98.58
2022-10-31T23:06:23.483Z,98.68
2022-10-31T23:08:51.364Z,98.88
2022-10-31T23:11:33.991Z,99.65
2022-10-31T23:14:09.278Z,99.65
2022-10-31T23:16:59.921Z,99.84
2022-10-31T23:19:30.275Z,98.92
2022-10-31T23:22:02.998Z,99.38
2022-10-31T23:24:37.741Z,100.00
2022-10-31T23:27:14.072Z,100.00
2022-10-31T23:29:51.951Z,100.00
2022-10-31T23:32:22.747Z,100.00
2022-10-31T23:34:52.109Z,100.00
2022-10-31T23:37:20.578Z,100.00
2022-10-31T23:39:47.819Z,100.00
2022-10-31T23:42:15.699Z,100.00
2022-10-31T23:44:43.113Z,100.00
2022-10-31T23:47:10.590Z,100.00
2022-10-31T23:49:37.754Z,100.00
2022-10-31T23:52:05.146Z,100.00
2022-10-31T23:54:32.822Z,100.00
2022-10-31T23:57:00.172Z,100.00
2022-10-31T23:59:29.029Z,100.00
